Watervliet, Michigan
Current Conditions -  °F | °C
As of 4:53 PM on Sunday 25 Jan 2015 (Local Time) from KBEH Reporting Station
Haze Haze  
Wind Chill: 16°   Ceiling: 4100
Heat Index: 25°   Visibility: 6mi
Dew Point: 17°   Wind: 8mph
Humidity: 72%   Direction: 50°NE
Pressure: 29.88"   Gusts: NA
Location:  42.19°N, 86.26°W
Report Text: KBEH 252153Z AUTO 05007KT 6SM HZ BKN041 OVC050 M04/M08 A2988 RMK AO2 SLP125 T10391083
Loading
Personal Weather Stations






























Interactive Weather Map New forecast layout! Learn more

10-Day Weather Forecast

Advertisements
Track Severe Weather on mobile